Coal City, West Virginia
Current Conditions -  °F | °C
As of 3:51 AM on Monday 20 Oct 2014 (Local Time) from KBKW Reporting Station
Clear Clear  
Wind Chill: 39°   Ceiling: Unl
Heat Index: 39°   Visibility: 10mi
Dew Point: 34°   Wind: 3mph
Humidity: 82%   Direction: 150°SSE
Pressure: 30.06"   Gusts: NA
Location:  37.68°N, 81.21°W
Report Text: KBKW 200751Z AUTO 15003KT 10SM CLR 04/01 A3006 RMK AO2 SLP186 T00390011 TSNO
Loading
Personal Weather Stations






























Interactive Weather Map
Tropical Storm Tracking
New forecast layout! Learn more

10-Day Weather Forecast

Advertisements
Track Severe Weather on mobile